createdAt,value
2022-10-11T00:00:14.186Z,0.00
2022-10-11T00:01:14.189Z,0.00
2022-10-11T00:02:14.205Z,0.00
2022-10-11T00:03:14.147Z,0.00
2022-10-11T00:04:14.133Z,0.00
2022-10-11T00:05:14.137Z,0.00
2022-10-11T00:06:14.138Z,0.00
2022-10-11T00:07:14.109Z,0.00
2022-10-11T00:08:14.127Z,0.00
2022-10-11T00:09:14.098Z,0.00
2022-10-11T00:10:14.082Z,0.00
2022-10-11T00:11:14.065Z,0.00
2022-10-11T00:12:14.044Z,0.00
2022-10-11T00:13:14.045Z,0.00
2022-10-11T00:14:14.065Z,0.00
2022-10-11T00:15:14.016Z,0.00
2022-10-11T00:16:14.010Z,0.00
2022-10-11T00:17:13.999Z,0.00
2022-10-11T00:18:13.984Z,0.00
2022-10-11T00:19:14.005Z,0.00
2022-10-11T00:20:13.987Z,0.00
2022-10-11T00:21:13.953Z,0.00
2022-10-11T00:22:13.948Z,0.00
2022-10-11T00:23:13.935Z,0.00
2022-10-11T00:24:13.951Z,0.00
2022-10-11T00:25:13.915Z,0.00
2022-10-11T00:26:13.906Z,0.00
2022-10-11T00:27:13.894Z,0.00
2022-10-11T00:28:13.936Z,0.00
2022-10-11T00:29:13.869Z,0.00
2022-10-11T00:30:13.889Z,0.00
2022-10-11T00:31:13.848Z,0.00
2022-10-11T00:32:13.838Z,0.00
2022-10-11T00:33:13.866Z,0.00
2022-10-11T00:34:13.825Z,0.00
2022-10-11T00:35:13.806Z,0.00
2022-10-11T00:36:13.792Z,0.00
2022-10-11T00:37:13.797Z,0.00
2022-10-11T00:38:13.774Z,0.00
2022-10-11T00:39:14.590Z,0.00
2022-10-11T00:40:13.784Z,0.00
2022-10-11T00:41:13.765Z,0.00
2022-10-11T00:42:13.738Z,0.00
2022-10-11T00:43:13.731Z,0.00
2022-10-11T00:44:13.733Z,0.00
2022-10-11T00:45:13.722Z,0.00
2022-10-11T00:46:13.697Z,0.00
2022-10-11T00:47:13.685Z,0.00
2022-10-11T00:48:13.667Z,0.00
2022-10-11T00:49:13.646Z,0.00
2022-10-11T00:50:13.653Z,0.00
2022-10-11T00:51:13.622Z,0.00
2022-10-11T00:52:13.653Z,0.00
2022-10-11T00:53:13.615Z,0.00
2022-10-11T00:54:13.591Z,0.00
2022-10-11T00:55:13.595Z,0.00
2022-10-11T00:56:13.563Z,0.00
2022-10-11T00:57:13.558Z,0.00
2022-10-11T00:58:13.606Z,0.00
2022-10-11T00:59:13.546Z,0.00
2022-10-11T01:00:13.532Z,0.00
2022-10-11T01:01:13.593Z,0.00
2022-10-11T01:02:13.514Z,0.00
2022-10-11T01:03:13.508Z,0.00
2022-10-11T01:04:13.499Z,0.00
2022-10-11T01:05:30.178Z,0.00
2022-10-11T01:06:14.454Z,0.00
2022-10-11T01:07:13.447Z,0.00
2022-10-11T01:08:13.441Z,0.00
2022-10-11T01:09:13.480Z,0.00
2022-10-11T01:10:13.455Z,0.00
2022-10-11T01:11:13.476Z,0.00
2022-10-11T01:12:13.395Z,0.00
2022-10-11T01:13:13.428Z,0.00
2022-10-11T01:14:13.390Z,0.00
2022-10-11T01:15:13.371Z,0.00
2022-10-11T01:16:13.362Z,0.00
2022-10-11T01:17:13.338Z,0.00
2022-10-11T01:18:13.346Z,0.00
2022-10-11T01:19:13.341Z,0.00
2022-10-11T01:20:13.306Z,0.00
2022-10-11T01:21:13.317Z,0.00
2022-10-11T01:22:13.286Z,0.00
2022-10-11T01:23:13.278Z,0.00
2022-10-11T01:24:13.288Z,0.00
2022-10-11T01:25:13.281Z,0.00
2022-10-11T01:26:13.274Z,0.00
2022-10-11T01:27:13.235Z,0.00
2022-10-11T01:28:13.307Z,0.00
2022-10-11T01:29:13.244Z,0.00
2022-10-11T01:30:13.245Z,0.00
2022-10-11T01:31:13.192Z,0.00
2022-10-11T01:32:13.182Z,0.00
2022-10-11T01:33:13.176Z,0.00
2022-10-11T01:34:13.158Z,0.00
2022-10-11T01:35:13.157Z,0.00
2022-10-11T01:36:13.163Z,0.00
2022-10-11T01:37:13.128Z,0.00
2022-10-11T01:38:13.138Z,0.00
2022-10-11T01:39:13.106Z,0.00
2022-10-11T01:40:13.098Z,0.00
2022-10-11T01:41:13.106Z,0.00
2022-10-11T01:42:13.081Z,0.00
2022-10-11T01:43:13.055Z,0.00
2022-10-11T01:44:13.042Z,0.00
2022-10-11T01:45:13.078Z,0.00
2022-10-11T01:46:13.042Z,0.00
2022-10-11T01:47:13.016Z,0.00
2022-10-11T01:48:12.999Z,0.00
2022-10-11T01:49:13.006Z,0.00
2022-10-11T01:50:12.988Z,0.00
2022-10-11T01:51:13.012Z,0.00
2022-10-11T01:52:12.967Z,0.00
2022-10-11T01:53:12.965Z,0.00
2022-10-11T01:54:12.939Z,0.00
2022-10-11T01:55:12.934Z,0.00
2022-10-11T01:56:12.940Z,0.00
2022-10-11T01:57:12.916Z,0.00
2022-10-11T01:58:12.910Z,0.00
2022-10-11T01:59:12.886Z,0.00
2022-10-11T02:00:12.899Z,0.00
2022-10-11T02:01:12.936Z,0.00
2022-10-11T02:02:12.867Z,0.00
2022-10-11T02:03:12.862Z,0.00
2022-10-11T02:04:12.846Z,0.00
2022-10-11T02:05:12.821Z,0.00
2022-10-11T02:06:12.817Z,0.00
2022-10-11T02:07:12.814Z,0.00
2022-10-11T02:08:12.807Z,0.00
2022-10-11T02:09:12.782Z,0.00
2022-10-11T02:10:12.771Z,0.00
2022-10-11T02:11:12.758Z,0.00
2022-10-11T02:12:12.755Z,0.00
2022-10-11T02:13:12.747Z,0.00
2022-10-11T02:14:12.762Z,0.00
2022-10-11T02:15:12.737Z,0.00
2022-10-11T02:16:12.723Z,0.00
2022-10-11T02:17:12.695Z,0.00
2022-10-11T02:18:12.703Z,0.00
2022-10-11T02:19:12.710Z,0.00
2022-10-11T02:20:12.673Z,0.00
2022-10-11T02:21:12.669Z,0.00
2022-10-11T02:22:12.658Z,0.00
2022-10-11T02:23:12.634Z,0.00
2022-10-11T02:24:12.622Z,0.00
2022-10-11T02:25:12.638Z,0.00
2022-10-11T02:26:12.613Z,0.00
2022-10-11T02:27:12.583Z,0.00
2022-10-11T02:28:12.628Z,0.00
2022-10-11T02:29:12.586Z,0.00
2022-10-11T02:30:12.561Z,0.00
2022-10-11T02:31:12.561Z,0.00
2022-10-11T02:32:12.540Z,0.00
2022-10-11T02:33:12.536Z,0.00
2022-10-11T02:34:12.523Z,0.00
2022-10-11T02:35:12.524Z,0.00
2022-10-11T02:36:12.521Z,0.00
2022-10-11T02:37:12.502Z,0.00
2022-10-11T02:38:12.482Z,0.00
2022-10-11T02:39:12.465Z,0.00
2022-10-11T02:40:12.466Z,0.00
2022-10-11T02:41:12.445Z,0.00
2022-10-11T02:42:12.429Z,0.00
2022-10-11T02:43:12.426Z,0.00
2022-10-11T02:44:12.423Z,0.00
2022-10-11T02:45:12.395Z,0.00
2022-10-11T02:46:12.396Z,0.00
2022-10-11T02:47:12.374Z,0.00
2022-10-11T02:48:12.363Z,0.00
2022-10-11T02:49:12.350Z,0.00
2022-10-11T02:50:12.367Z,0.00
2022-10-11T02:51:12.342Z,0.00
2022-10-11T02:52:12.316Z,0.00
2022-10-11T02:53:12.333Z,0.00
2022-10-11T02:54:12.299Z,0.00
2022-10-11T02:55:12.297Z,0.00
2022-10-11T02:56:12.280Z,0.00
2022-10-11T02:57:12.277Z,0.00
2022-10-11T02:58:12.256Z,0.00
2022-10-11T02:59:12.249Z,0.00
2022-10-11T03:00:12.233Z,0.00
2022-10-11T03:01:12.270Z,0.00
2022-10-11T03:02:12.209Z,0.00
2022-10-11T03:03:12.209Z,0.00
2022-10-11T03:04:12.208Z,0.00
2022-10-11T03:05:12.181Z,0.00
2022-10-11T03:06:12.188Z,0.00
2022-10-11T03:07:12.162Z,0.00
2022-10-11T03:08:12.195Z,0.00
2022-10-11T03:09:12.167Z,0.00
2022-10-11T03:10:12.275Z,0.00
2022-10-11T03:11:12.127Z,0.00
2022-10-11T03:12:12.105Z,0.00
2022-10-11T03:13:15.954Z,0.00
2022-10-11T03:14:13.105Z,0.00
2022-10-11T03:15:12.076Z,0.00
2022-10-11T03:16:12.460Z,0.00
2022-10-11T03:17:35.018Z,0.00
2022-10-11T03:18:13.046Z,0.00
2022-10-11T03:19:14.649Z,0.00
2022-10-11T03:20:13.016Z,0.00
2022-10-11T03:21:12.023Z,0.00
2022-10-11T03:22:12.068Z,0.00
2022-10-11T03:23:11.992Z,0.00
2022-10-11T03:24:11.967Z,0.00
2022-10-11T03:25:11.984Z,0.00
2022-10-11T03:26:11.957Z,0.00
2022-10-11T03:27:11.951Z,0.00
2022-10-11T03:28:11.989Z,0.00
2022-10-11T03:29:12.026Z,0.00
2022-10-11T03:30:16.127Z,0.00
2022-10-11T03:31:11.937Z,0.00
2022-10-11T03:32:11.893Z,0.00
2022-10-11T03:33:11.882Z,0.00
2022-10-11T03:34:11.866Z,0.00
2022-10-11T03:35:11.854Z,0.00
2022-10-11T03:36:11.857Z,0.00
2022-10-11T03:37:11.848Z,0.00
2022-10-11T03:38:13.050Z,0.00
2022-10-11T03:39:11.821Z,0.00
2022-10-11T03:40:11.830Z,0.00
2022-10-11T03:41:11.787Z,0.00
2022-10-11T03:42:11.782Z,0.00
2022-10-11T03:43:11.796Z,0.00
2022-10-11T03:44:11.785Z,0.00
2022-10-11T03:45:11.776Z,0.00
2022-10-11T03:46:11.754Z,0.00
2022-10-11T03:47:11.730Z,0.00
2022-10-11T03:48:11.718Z,0.00
2022-10-11T03:49:11.719Z,0.00
2022-10-11T03:50:11.710Z,0.00
2022-10-11T03:51:11.704Z,0.00
2022-10-11T03:52:11.671Z,0.00
2022-10-11T03:53:11.671Z,0.00
2022-10-11T03:54:11.666Z,0.00
2022-10-11T03:55:11.649Z,0.00
2022-10-11T03:56:12.087Z,0.00
2022-10-11T03:57:11.658Z,0.00
2022-10-11T03:58:11.621Z,0.00
2022-10-11T03:59:11.619Z,0.00
2022-10-11T04:00:11.591Z,0.00
2022-10-11T04:01:11.579Z,0.00
2022-10-11T04:02:11.653Z,0.00
2022-10-11T04:03:11.639Z,0.00
2022-10-11T04:04:11.561Z,0.00
2022-10-11T04:05:11.538Z,0.00
2022-10-11T04:06:11.527Z,0.00
2022-10-11T04:07:11.516Z,0.00
2022-10-11T04:08:12.483Z,0.00
2022-10-11T04:09:11.513Z,0.00
2022-10-11T04:10:11.491Z,0.00
2022-10-11T04:11:11.461Z,0.00
2022-10-11T04:12:11.458Z,0.00
2022-10-11T04:13:11.450Z,0.00
2022-10-11T04:14:11.470Z,0.00
2022-10-11T04:15:11.429Z,0.00
2022-10-11T04:16:11.410Z,0.00
2022-10-11T04:17:11.401Z,0.00
2022-10-11T04:18:11.398Z,0.00
2022-10-11T04:19:11.389Z,0.00
2022-10-11T04:20:11.401Z,0.00
2022-10-11T04:21:11.362Z,0.00
2022-10-11T04:22:11.350Z,0.00
2022-10-11T04:23:11.332Z,0.00
2022-10-11T04:24:11.337Z,0.00
2022-10-11T04:25:11.340Z,0.00
2022-10-11T04:26:11.325Z,0.00
2022-10-11T04:27:11.294Z,0.00
2022-10-11T04:28:11.295Z,0.00
2022-10-11T04:29:11.281Z,0.00
2022-10-11T04:30:11.291Z,0.00
2022-10-11T04:31:11.257Z,0.00
2022-10-11T04:32:11.262Z,0.00
2022-10-11T04:33:11.226Z,0.00
2022-10-11T04:34:11.223Z,0.00
2022-10-11T04:35:11.229Z,0.00
2022-10-11T04:36:11.216Z,0.00
2022-10-11T04:37:11.189Z,0.00
2022-10-11T04:38:11.178Z,0.00
2022-10-11T04:39:11.181Z,0.00
2022-10-11T04:40:11.179Z,0.00
2022-10-11T04:41:11.154Z,0.00
2022-10-11T04:42:11.142Z,0.00
2022-10-11T04:43:11.128Z,0.00
2022-10-11T04:44:11.133Z,0.00
2022-10-11T04:45:18.185Z,0.00
2022-10-11T04:46:11.587Z,0.00
2022-10-11T04:47:11.067Z,0.00
2022-10-11T04:48:11.065Z,0.00
2022-10-11T04:49:11.052Z,0.00
2022-10-11T04:50:11.034Z,0.00
2022-10-11T04:51:11.045Z,0.00
2022-10-11T04:52:11.024Z,0.00
2022-10-11T04:53:11.008Z,0.00
2022-10-11T04:54:11.567Z,0.00
2022-10-11T04:55:10.990Z,0.00
2022-10-11T04:56:11.013Z,0.00
2022-10-11T04:57:10.974Z,0.00
2022-10-11T04:58:10.965Z,4.00
2022-10-11T04:59:10.959Z,4.00
2022-10-11T05:00:10.923Z,4.00
2022-10-11T05:01:10.915Z,0.00
2022-10-11T05:02:11.004Z,4.00
2022-10-11T05:03:10.913Z,4.00
2022-10-11T05:04:10.881Z,4.00
2022-10-11T05:05:10.895Z,8.00
2022-10-11T05:06:11.239Z,8.00
2022-10-11T05:07:10.847Z,8.00
2022-10-11T05:08:10.846Z,8.00
2022-10-11T05:09:10.829Z,12.00
2022-10-11T05:10:10.836Z,16.00
2022-10-11T05:11:10.808Z,20.00
2022-10-11T05:12:10.795Z,20.00
2022-10-11T05:13:10.804Z,24.00
2022-10-11T05:14:10.791Z,28.00
2022-10-11T05:15:10.763Z,28.00
2022-10-11T05:16:11.521Z,36.00
2022-10-11T05:17:10.762Z,40.00
2022-10-11T05:18:10.744Z,44.00
2022-10-11T05:19:10.732Z,52.00
2022-10-11T05:20:10.706Z,56.00
2022-10-11T05:21:10.699Z,60.00
2022-10-11T05:22:10.697Z,72.00
2022-10-11T05:23:10.715Z,76.00
2022-10-11T05:24:10.687Z,88.00
2022-10-11T05:25:10.663Z,96.00
2022-10-11T05:26:10.716Z,104.00
2022-10-11T05:27:10.820Z,112.00
2022-10-11T05:28:10.784Z,124.00
2022-10-11T05:29:19.278Z,132.00
2022-10-11T05:30:10.605Z,148.00
2022-10-11T05:31:13.121Z,160.00
2022-10-11T05:32:10.584Z,172.00
2022-10-11T05:33:10.585Z,184.00
2022-10-11T05:34:10.579Z,196.00
2022-10-11T05:35:10.557Z,208.00
2022-10-11T05:36:10.539Z,220.00
2022-10-11T05:37:10.532Z,236.00
2022-10-11T05:38:10.541Z,248.00
2022-10-11T05:39:10.510Z,264.00
2022-10-11T05:40:10.501Z,280.00
2022-10-11T05:41:10.490Z,292.00
2022-10-11T05:42:10.483Z,308.00
2022-10-11T05:43:10.511Z,324.00
2022-10-11T05:44:10.451Z,340.00
2022-10-11T05:45:10.467Z,356.00
2022-10-11T05:46:10.437Z,372.00
2022-10-11T05:47:10.424Z,388.00
2022-10-11T05:48:10.410Z,400.00
2022-10-11T05:49:10.407Z,420.00
2022-10-11T05:50:10.393Z,436.00
2022-10-11T05:51:10.382Z,452.00
2022-10-11T05:52:10.371Z,468.00
2022-10-11T05:53:10.371Z,484.00
2022-10-11T05:54:10.361Z,500.00
2022-10-11T05:55:10.351Z,516.00
2022-10-11T05:56:10.332Z,532.00
2022-10-11T05:57:10.317Z,556.00
2022-10-11T05:58:10.330Z,568.00
2022-10-11T05:59:10.311Z,580.00
2022-10-11T06:00:10.282Z,596.00
2022-10-11T06:01:10.369Z,612.00
2022-10-11T06:02:10.274Z,632.00
2022-10-11T06:03:10.254Z,648.00
2022-10-11T06:04:10.236Z,660.00
2022-10-11T06:05:10.245Z,680.00
2022-10-11T06:06:10.857Z,696.00
2022-10-11T06:07:10.218Z,708.00
2022-10-11T06:08:10.203Z,724.00
2022-10-11T06:09:10.192Z,744.00
2022-10-11T06:10:10.199Z,764.00
2022-10-11T06:11:12.038Z,780.00
2022-10-11T06:12:10.153Z,796.00
2022-10-11T06:13:10.153Z,816.00
2022-10-11T06:14:10.132Z,832.00
2022-10-11T06:15:10.116Z,848.00
2022-10-11T06:16:10.136Z,880.00
2022-10-11T06:17:10.121Z,888.00
2022-10-11T06:18:10.118Z,904.00
2022-10-11T06:19:10.081Z,916.00
2022-10-11T06:20:10.075Z,940.00
2022-10-11T06:21:10.056Z,956.00
2022-10-11T06:22:10.053Z,968.00
2022-10-11T06:23:10.040Z,992.00
2022-10-11T06:24:10.024Z,1000.00
2022-10-11T06:25:10.010Z,1036.00
2022-10-11T06:26:10.468Z,1032.00
2022-10-11T06:27:09.986Z,1056.00
2022-10-11T06:28:10.017Z,1068.00
2022-10-11T06:29:10.002Z,1100.00
2022-10-11T06:30:10.645Z,1128.00
2022-10-11T06:31:09.971Z,1148.00
2022-10-11T06:32:09.950Z,1164.00
2022-10-11T06:33:09.966Z,1176.00
2022-10-11T06:34:09.915Z,1188.00
2022-10-11T06:35:09.894Z,1208.00
2022-10-11T06:36:09.906Z,1224.00
2022-10-11T06:37:09.897Z,1240.00
2022-10-11T06:38:09.875Z,1276.00
2022-10-11T06:39:09.863Z,1300.00
2022-10-11T06:40:09.855Z,1336.00
2022-10-11T06:41:09.836Z,1352.00
2022-10-11T06:42:09.916Z,1356.00
2022-10-11T06:43:09.837Z,1360.00
2022-10-11T06:44:14.022Z,1356.00
2022-10-11T06:45:09.961Z,1372.00
2022-10-11T06:46:09.780Z,1400.00
2022-10-11T06:47:09.768Z,1432.00
2022-10-11T06:48:09.888Z,1452.00
2022-10-11T06:49:09.785Z,1464.00
2022-10-11T06:50:09.748Z,1504.00
2022-10-11T06:51:09.835Z,1532.00
2022-10-11T06:52:09.718Z,1548.00
2022-10-11T06:53:09.726Z,1604.00
2022-10-11T06:54:09.713Z,1628.00
2022-10-11T06:55:09.695Z,1660.00
2022-10-11T06:56:09.869Z,1696.00
2022-10-11T06:57:09.661Z,1708.00
2022-10-11T06:58:09.696Z,1740.00
2022-10-11T06:59:10.600Z,1784.00
2022-10-11T07:00:12.664Z,1824.00
2022-10-11T07:01:09.700Z,1880.00
2022-10-11T07:02:09.608Z,1912.00
2022-10-11T07:03:09.611Z,1924.00
2022-10-11T07:04:09.605Z,1948.00
2022-10-11T07:05:09.622Z,1984.00
2022-10-11T07:06:10.067Z,2044.00
2022-10-11T07:07:09.555Z,2080.00
2022-10-11T07:08:09.562Z,2108.00
2022-10-11T07:09:09.572Z,2140.00
2022-10-11T07:10:09.533Z,2164.00
2022-10-11T07:11:09.549Z,2200.00
2022-10-11T07:12:09.508Z,2264.00
2022-10-11T07:13:13.552Z,2312.00
2022-10-11T07:14:10.483Z,2348.00
2022-10-11T07:15:09.485Z,2376.00
2022-10-11T07:16:09.844Z,2452.00
2022-10-11T07:17:09.466Z,2452.00
2022-10-11T07:18:09.450Z,2496.00
2022-10-11T07:19:09.441Z,2580.00
2022-10-11T07:20:09.421Z,2732.00
2022-10-11T07:21:09.442Z,2904.00
2022-10-11T07:22:09.422Z,2420.00
2022-10-11T07:23:09.386Z,2764.00
2022-10-11T07:24:09.387Z,2760.00
2022-10-11T07:25:09.361Z,2856.00
2022-10-11T07:26:09.780Z,2920.00
2022-10-11T07:27:09.339Z,2872.00
2022-10-11T07:28:09.456Z,2856.00
2022-10-11T07:29:09.328Z,2880.00
2022-10-11T07:30:09.315Z,2928.00
2022-10-11T07:31:09.308Z,2976.00
2022-10-11T07:32:09.293Z,2968.00
2022-10-11T07:33:09.300Z,3232.00
2022-10-11T07:34:09.273Z,3064.00
2022-10-11T07:35:09.254Z,3056.00
2022-10-11T07:36:09.532Z,3136.00
2022-10-11T07:37:09.267Z,3192.00
2022-10-11T07:38:09.229Z,3128.00
2022-10-11T07:39:09.220Z,3080.00
2022-10-11T07:40:09.236Z,3112.00
2022-10-11T07:41:09.187Z,3104.00
2022-10-11T07:42:09.178Z,3192.00
2022-10-11T07:43:09.175Z,3260.00
2022-10-11T07:44:09.198Z,3332.00
2022-10-11T07:45:09.149Z,3308.00
2022-10-11T07:46:09.923Z,3332.00
2022-10-11T07:47:11.412Z,3364.00
2022-10-11T07:48:09.129Z,3380.00
2022-10-11T07:49:09.116Z,3424.00
2022-10-11T07:50:09.123Z,3648.00
2022-10-11T07:51:09.079Z,3580.00
2022-10-11T07:52:09.075Z,3580.00
2022-10-11T07:53:09.081Z,3520.00
2022-10-11T07:54:09.048Z,3504.00
2022-10-11T07:55:09.041Z,3620.00
2022-10-11T07:56:09.372Z,3668.00
2022-10-11T07:57:09.014Z,3680.00
2022-10-11T07:58:09.014Z,3736.00
2022-10-11T07:59:09.041Z,3748.00
2022-10-11T08:00:08.990Z,3728.00
2022-10-11T08:01:09.079Z,3796.00
2022-10-11T08:02:08.971Z,3920.00
2022-10-11T08:03:08.953Z,3956.00
2022-10-11T08:04:08.945Z,3904.00
2022-10-11T08:05:08.946Z,3940.00
2022-10-11T08:06:09.577Z,3988.00
2022-10-11T08:07:08.929Z,4012.00
2022-10-11T08:08:08.912Z,4124.00
2022-10-11T08:09:08.899Z,4220.00
2022-10-11T08:10:08.873Z,4316.00
2022-10-11T08:11:08.905Z,4448.00
2022-10-11T08:12:08.874Z,4536.00
2022-10-11T08:13:08.861Z,4648.00
2022-10-11T08:14:08.940Z,4748.00
2022-10-11T08:15:08.829Z,4912.00
2022-10-11T08:16:09.017Z,5060.00
2022-10-11T08:17:08.804Z,5196.00
2022-10-11T08:18:08.806Z,5432.00
2022-10-11T08:19:08.809Z,5580.00
2022-10-11T08:20:08.777Z,5676.00
2022-10-11T08:21:08.770Z,5720.00
2022-10-11T08:22:08.744Z,5800.00
2022-10-11T08:23:08.739Z,5900.00
2022-10-11T08:24:08.743Z,5960.00
2022-10-11T08:25:08.737Z,6056.00
2022-10-11T08:26:09.095Z,6208.00
2022-10-11T08:27:08.686Z,6308.00
2022-10-11T08:28:08.799Z,6436.00
2022-10-11T08:29:08.690Z,6600.00
2022-10-11T08:30:08.666Z,6860.00
2022-10-11T08:31:08.665Z,7788.00
2022-10-11T08:32:08.645Z,10204.00
2022-10-11T08:33:08.865Z,20672.00
2022-10-11T08:34:08.616Z,30336.00
2022-10-11T08:35:08.613Z,32160.00
2022-10-11T08:36:09.438Z,33888.00
2022-10-11T08:37:08.580Z,35744.00
2022-10-11T08:38:08.583Z,37344.00
2022-10-11T08:39:08.559Z,38464.00
2022-10-11T08:40:08.572Z,38848.00
2022-10-11T08:41:08.561Z,39872.00
2022-10-11T08:42:08.535Z,40192.00
2022-10-11T08:43:08.514Z,40384.00
2022-10-11T08:44:08.510Z,40832.00
2022-10-11T08:45:11.547Z,40928.00
2022-10-11T08:46:09.158Z,40736.00
2022-10-11T08:47:08.479Z,40352.00
2022-10-11T08:48:08.474Z,40832.00
2022-10-11T08:49:08.458Z,41024.00
2022-10-11T08:50:08.458Z,42560.00
2022-10-11T08:51:08.429Z,42496.00
2022-10-11T08:52:08.434Z,34368.00
2022-10-11T08:53:08.406Z,18816.00
2022-10-11T08:54:08.414Z,14484.00
2022-10-11T08:55:08.406Z,15040.00
2022-10-11T08:56:09.071Z,14324.00
2022-10-11T08:57:08.392Z,12908.00
2022-10-11T08:58:08.370Z,12132.00
2022-10-11T08:59:08.347Z,11764.00
2022-10-11T09:00:08.344Z,14156.00
2022-10-11T09:01:08.380Z,20448.00
2022-10-11T09:02:08.317Z,18848.00
2022-10-11T09:03:09.507Z,12516.00
2022-10-11T09:04:08.303Z,12428.00
2022-10-11T09:05:08.284Z,15904.00
2022-10-11T09:06:09.007Z,21888.00
2022-10-11T09:07:08.286Z,17600.00
2022-10-11T09:08:08.258Z,13776.00
2022-10-11T09:09:08.260Z,10940.00
2022-10-11T09:10:08.232Z,8200.00
2022-10-11T09:11:08.230Z,7148.00
2022-10-11T09:12:08.251Z,6676.00
2022-10-11T09:13:08.222Z,6668.00
2022-10-11T09:14:08.210Z,6340.00
2022-10-11T09:15:08.189Z,5808.00
2022-10-11T09:16:08.521Z,5820.00
2022-10-11T09:17:08.181Z,5680.00
2022-10-11T09:18:08.170Z,5716.00
2022-10-11T09:19:08.146Z,5780.00
2022-10-11T09:20:08.136Z,5520.00
2022-10-11T09:21:08.123Z,5448.00
2022-10-11T09:22:08.114Z,5644.00
2022-10-11T09:23:08.114Z,5972.00
2022-10-11T09:24:08.133Z,5420.00
2022-10-11T09:25:08.074Z,5296.00
2022-10-11T09:26:08.530Z,5140.00
2022-10-11T09:27:08.057Z,5240.00
2022-10-11T09:28:08.136Z,5152.00
2022-10-11T09:29:08.128Z,5364.00
2022-10-11T09:30:08.040Z,6192.00
2022-10-11T09:31:08.006Z,13540.00
2022-10-11T09:32:07.997Z,12072.00
2022-10-11T09:33:07.991Z,8116.00
2022-10-11T09:34:07.974Z,7376.00
2022-10-11T09:35:08.007Z,7212.00
2022-10-11T09:36:08.308Z,8764.00
2022-10-11T09:37:07.974Z,10208.00
2022-10-11T09:38:07.944Z,10236.00
2022-10-11T09:39:07.922Z,15268.00
2022-10-11T09:40:07.914Z,43680.00
2022-10-11T09:41:07.907Z,42976.00
2022-10-11T09:42:07.955Z,46368.00
2022-10-11T09:43:07.902Z,44032.00
2022-10-11T09:44:07.901Z,15968.00
2022-10-11T09:45:07.887Z,12952.00
2022-10-11T09:46:08.307Z,11576.00
2022-10-11T09:47:07.839Z,12468.00
2022-10-11T09:48:07.830Z,16192.00
2022-10-11T09:49:07.834Z,13804.00
2022-10-11T09:50:07.817Z,12220.00
2022-10-11T09:51:07.793Z,12848.00
2022-10-11T09:52:07.792Z,10532.00
2022-10-11T09:53:07.780Z,7632.00
2022-10-11T09:54:07.784Z,6968.00
2022-10-11T09:55:07.766Z,6524.00
2022-10-11T09:56:08.329Z,5820.00
2022-10-11T09:57:07.738Z,5600.00
2022-10-11T09:58:07.717Z,5500.00
2022-10-11T09:59:07.718Z,5172.00
2022-10-11T10:00:07.721Z,5052.00
2022-10-11T10:01:08.459Z,4948.00
2022-10-11T10:02:07.745Z,4848.00
2022-10-11T10:03:07.671Z,4816.00
2022-10-11T10:04:07.675Z,4808.00
2022-10-11T10:05:07.651Z,4808.00
2022-10-11T10:06:08.377Z,4912.00
2022-10-11T10:07:07.637Z,4764.00
2022-10-11T10:08:07.636Z,4484.00
2022-10-11T10:09:07.604Z,4440.00
2022-10-11T10:10:07.610Z,4332.00
2022-10-11T10:11:07.587Z,4292.00
2022-10-11T10:12:07.572Z,4612.00
2022-10-11T10:13:07.567Z,4428.00
2022-10-11T10:14:07.551Z,5876.00
2022-10-11T10:15:07.551Z,2724.00
2022-10-11T10:16:08.056Z,5984.00
2022-10-11T10:17:07.569Z,6348.00
2022-10-11T10:18:07.538Z,7788.00
2022-10-11T10:19:07.501Z,6400.00
2022-10-11T10:20:07.500Z,6928.00
2022-10-11T10:21:07.497Z,6792.00
2022-10-11T10:22:07.474Z,6540.00
2022-10-11T10:23:07.451Z,5952.00
2022-10-11T10:24:07.461Z,5508.00
2022-10-11T10:25:07.429Z,5580.00
2022-10-11T10:26:08.018Z,3480.00
2022-10-11T10:27:07.405Z,5748.00
2022-10-11T10:28:07.442Z,5816.00
2022-10-11T10:29:07.395Z,6372.00
2022-10-11T10:30:07.381Z,6448.00
2022-10-11T10:31:07.367Z,6160.00
2022-10-11T10:32:14.382Z,6096.00
2022-10-11T10:33:08.371Z,2892.00
2022-10-11T10:34:07.338Z,3180.00
2022-10-11T10:35:07.320Z,5932.00
2022-10-11T10:36:07.794Z,4080.00
2022-10-11T10:37:07.325Z,5704.00
2022-10-11T10:38:07.289Z,2500.00
2022-10-11T10:39:07.299Z,3820.00
2022-10-11T10:40:07.266Z,3236.00
2022-10-11T10:41:07.256Z,3160.00
2022-10-11T10:42:07.266Z,2936.00
2022-10-11T10:43:07.255Z,3464.00
2022-10-11T10:44:07.226Z,3492.00
2022-10-11T10:45:11.296Z,3112.00
2022-10-11T10:46:08.642Z,2396.00
2022-10-11T10:47:07.193Z,4380.00
2022-10-11T10:48:07.195Z,2308.00
2022-10-11T10:50:08.158Z,4236.00
2022-10-11T10:51:10.455Z,4420.00
2022-10-11T10:52:07.146Z,2888.00
2022-10-11T10:53:07.147Z,4224.00
2022-10-11T10:54:07.142Z,4808.00
2022-10-11T10:55:07.113Z,5824.00
2022-10-11T10:56:07.432Z,7084.00
2022-10-11T10:57:07.093Z,8160.00
2022-10-11T10:58:07.077Z,8384.00
2022-10-11T10:59:07.059Z,8420.00
2022-10-11T11:00:07.067Z,8572.00
2022-10-11T11:01:07.064Z,8668.00
2022-10-11T11:02:28.228Z,7628.00
2022-10-11T11:03:08.021Z,6676.00
2022-10-11T11:04:07.026Z,5688.00
2022-10-11T11:05:07.017Z,5548.00
2022-10-11T11:06:07.479Z,5776.00
2022-10-11T11:07:06.975Z,6716.00
2022-10-11T11:08:06.975Z,6752.00
2022-10-11T11:09:06.953Z,6436.00
2022-10-11T11:10:06.957Z,6408.00
2022-10-11T11:11:06.955Z,5644.00
2022-10-11T11:12:06.947Z,5868.00
2022-10-11T11:13:06.934Z,6208.00
2022-10-11T11:14:06.903Z,7136.00
2022-10-11T11:15:06.897Z,6660.00
2022-10-11T11:16:07.295Z,6236.00
2022-10-11T11:17:06.887Z,6268.00
2022-10-11T11:18:06.874Z,6156.00
2022-10-11T11:19:06.853Z,7104.00
2022-10-11T11:20:06.842Z,6864.00
2022-10-11T11:21:06.878Z,6600.00
2022-10-11T11:22:06.821Z,6032.00
2022-10-11T11:23:06.849Z,6252.00
2022-10-11T11:24:06.811Z,7024.00
2022-10-11T11:25:06.783Z,6956.00
2022-10-11T11:26:07.115Z,6476.00
2022-10-11T11:27:06.788Z,6584.00
2022-10-11T11:28:06.766Z,5988.00
2022-10-11T11:29:06.757Z,5712.00
2022-10-11T11:30:06.737Z,5056.00
2022-10-11T11:31:07.073Z,2268.00
2022-10-11T11:32:06.712Z,1972.00
2022-10-11T11:33:06.706Z,1932.00
2022-10-11T11:34:06.700Z,2028.00
2022-10-11T11:35:06.686Z,5236.00
2022-10-11T11:36:07.181Z,6044.00
2022-10-11T11:37:06.706Z,6272.00
2022-10-11T11:38:06.770Z,6436.00
2022-10-11T11:39:06.649Z,6944.00
2022-10-11T11:40:06.627Z,7392.00
2022-10-11T11:41:07.066Z,7716.00
2022-10-11T11:42:06.614Z,7760.00
2022-10-11T11:43:06.611Z,7732.00
2022-10-11T11:44:06.578Z,7836.00
2022-10-11T11:45:06.576Z,8064.00
2022-10-11T11:46:06.558Z,7824.00
2022-10-11T11:47:06.556Z,5536.00
2022-10-11T11:48:06.542Z,4112.00
2022-10-11T11:49:10.811Z,4292.00
2022-10-11T11:50:07.538Z,3468.00
2022-10-11T11:51:06.990Z,4040.00
2022-10-11T11:52:06.493Z,5872.00
2022-10-11T11:53:06.505Z,6656.00
2022-10-11T11:54:06.474Z,7248.00
2022-10-11T11:55:06.468Z,6656.00
2022-10-11T11:56:06.470Z,4932.00
2022-10-11T11:57:06.437Z,6472.00
2022-10-11T11:58:07.365Z,4544.00
2022-10-11T11:59:06.425Z,4240.00
2022-10-11T12:00:06.407Z,5480.00
2022-10-11T12:01:06.705Z,5296.00
2022-10-11T12:02:06.593Z,5692.00
2022-10-11T12:03:06.372Z,5648.00
2022-10-11T12:04:06.362Z,5372.00
2022-10-11T12:05:06.370Z,5416.00
2022-10-11T12:06:06.367Z,4504.00
2022-10-11T12:07:17.948Z,4644.00
2022-10-11T12:08:07.322Z,7380.00
2022-10-11T12:09:06.381Z,5528.00
2022-10-11T12:10:06.299Z,5696.00
2022-10-11T12:11:06.733Z,6316.00
2022-10-11T12:12:06.319Z,5332.00
2022-10-11T12:13:06.277Z,5808.00
2022-10-11T12:14:06.257Z,4904.00
2022-10-11T12:15:06.245Z,5284.00
2022-10-11T12:16:06.238Z,6636.00
2022-10-11T12:17:06.235Z,5640.00
2022-10-11T12:18:06.253Z,4852.00
2022-10-11T12:19:06.207Z,4232.00
2022-10-11T12:20:06.194Z,3500.00
2022-10-11T12:21:06.616Z,2924.00
2022-10-11T12:22:06.175Z,2424.00
2022-10-11T12:23:06.162Z,2032.00
2022-10-11T12:24:06.194Z,1876.00
2022-10-11T12:25:06.164Z,2200.00
2022-10-11T12:26:06.153Z,2544.00
2022-10-11T12:27:06.118Z,2632.00
2022-10-11T12:28:06.112Z,2532.00
2022-10-11T12:29:06.103Z,2628.00
2022-10-11T12:30:06.101Z,2588.00
2022-10-11T12:31:06.440Z,2532.00
2022-10-11T12:32:06.064Z,2504.00
2022-10-11T12:33:06.054Z,2488.00
2022-10-11T12:34:06.040Z,2316.00
2022-10-11T12:35:06.062Z,2460.00